Time;durP1;ratioP1;P1;durP2;ratioP2;P2;SDS_P1;SDS_P2;PMS_P1;PMS_P2;Temp;Humidity;BMP_temperature;BMP_pressure;BME280_temperature;BME280_humidity;BME280_pressure;Samples;Min_cycle;Max_cycle;Signal;HPM_P1;HPM_P2
2022/03/21 00:01:21;;;;;;;15.80;12.70;;;;;;;4.27;53.24;102672.78;4991881;28;20018;-21
2022/03/21 00:03:46;;;;;;;16.75;13.95;;;;;;;4.24;52.80;102665.69;4990154;28;20054;-21
2022/03/21 00:06:12;;;;;;;16.73;13.25;;;;;;;4.19;52.99;102669.81;4990548;28;20061;-21
2022/03/21 00:08:38;;;;;;;18.05;12.98;;;;;;;4.17;53.38;102666.19;4988399;28;20038;-20
2022/03/21 00:11:03;;;;;;;18.27;12.40;;;;;;;4.14;52.95;102666.06;4992108;28;20101;-21
2022/03/21 00:13:29;;;;;;;17.48;12.23;;;;;;;4.12;53.19;102667.69;4987704;28;20033;-21
2022/03/21 00:15:54;;;;;;;17.67;12.13;;;;;;;4.08;53.50;102665.75;4997638;28;20403;-20
2022/03/21 00:18:21;;;;;;;17.70;12.98;;;;;;;4.06;53.31;102667.38;4986443;28;20034;-21
2022/03/21 00:20:49;;;;;;;18.98;13.25;;;;;;;4.04;53.21;102663.81;4989062;28;20496;-21
2022/03/21 00:23:15;;;;;;;16.50;12.35;;;;;;;4.03;53.24;102662.03;4969791;28;20050;-21
2022/03/21 00:25:41;;;;;;;18.77;13.40;;;;;;;3.98;53.16;102665.28;5006541;28;20123;-21
2022/03/21 00:28:08;;;;;;;17.58;13.90;;;;;;;3.96;53.32;102664.31;4989130;28;20562;-20
2022/03/21 00:30:35;;;;;;;18.60;13.55;;;;;;;3.93;53.69;102656.31;4991029;28;20048;-21
2022/03/21 00:33:00;;;;;;;20.23;13.77;;;;;;;3.91;53.40;102663.22;4989901;28;20022;-21
2022/03/21 00:35:27;;;;;;;18.80;13.73;;;;;;;3.89;53.63;102658.69;4989921;28;20038;-21
2022/03/21 00:37:53;;;;;;;15.55;12.52;;;;;;;3.85;53.55;102661.19;4991880;28;20030;-21
2022/03/21 00:40:18;;;;;;;19.58;12.52;;;;;;;3.83;53.97;102664.50;4987065;28;20029;-21
2022/03/21 00:42:45;;;;;;;18.13;13.20;;;;;;;3.82;53.80;102667.94;4988222;28;20026;-21
2022/03/21 00:45:14;;;;;;;20.20;13.95;;;;;;;3.79;54.03;102659.94;4985504;28;20022;-21
2022/03/21 00:47:39;;;;;;;19.95;13.80;;;;;;;3.75;54.06;102660.59;4989129;28;20034;-21
2022/03/21 00:50:07;;;;;;;19.45;13.35;;;;;;;3.73;54.20;102668.34;4989454;28;20031;-21
2022/03/21 00:52:38;;;;;;;17.48;12.98;;;;;;;3.69;54.30;102667.31;4991842;28;20492;-21
2022/03/21 00:55:04;;;;;;;16.95;12.88;;;;;;;3.68;54.02;102665.53;4993465;28;20485;-21
2022/03/21 00:57:29;;;;;;;19.83;13.27;;;;;;;3.65;53.91;102665.38;4992258;28;20109;-21
2022/03/21 00:59:54;;;;;;;18.25;13.85;;;;;;;3.63;53.92;102661.78;4991408;28;20034;-21
2022/03/21 01:02:20;;;;;;;17.30;12.80;;;;;;;3.61;54.03;102660.81;4992773;28;20028;-21
2022/03/21 01:04:45;;;;;;;19.02;13.57;;;;;;;3.57;54.52;102659.75;4993532;28;20026;-21
2022/03/21 01:07:10;;;;;;;18.70;13.57;;;;;;;3.55;54.51;102665.69;4991811;28;20527;-21
2022/03/21 01:09:36;;;;;;;18.45;13.98;;;;;;;3.52;54.40;102665.53;4992934;28;20033;-21
2022/03/21 01:12:03;;;;;;;20.20;14.52;;;;;;;3.50;54.15;102661.97;4990769;28;20026;-21
2022/03/21 01:14:31;;;;;;;18.73;14.15;;;;;;;3.47;54.51;102660.97;4990277;28;20022;-21
2022/03/21 01:16:57;;;;;;;18.42;14.13;;;;;;;3.45;54.64;102657.41;4988670;28;20084;-21
2022/03/21 01:19:23;;;;;;;20.77;15.18;;;;;;;3.42;54.14;102657.25;4991111;28;20473;-21
2022/03/21 01:21:49;;;;;;;19.80;14.07;;;;;;;3.40;54.16;102653.63;4989433;28;20018;-21
2022/03/21 01:24:14;;;;;;;17.98;13.23;;;;;;;3.39;54.38;102654.47;4989082;28;20046;-21
2022/03/21 01:26:39;;;;;;;18.25;14.43;;;;;;;3.37;54.26;102656.09;4990285;28;20382;-21
2022/03/21 01:29:05;;;;;;;18.38;14.57;;;;;;;3.33;54.51;102656.75;4991737;28;20117;-21
2022/03/21 01:31:30;;;;;;;19.33;13.75;;;;;;;3.31;54.43;102648.84;4989345;28;20038;-21
2022/03/21 01:33:55;;;;;;;17.65;14.25;;;;;;;3.30;54.47;102656.59;4988976;28;20034;-21
2022/03/21 01:36:21;;;;;;;19.73;13.95;;;;;;;3.28;55.06;102663.44;4988744;28;20053;-21
2022/03/21 01:38:46;;;;;;;19.95;14.45;;;;;;;3.26;54.62;102657.22;4988831;28;20058;-21
2022/03/21 01:41:11;;;;;;;18.40;14.15;;;;;;;3.23;54.64;102654.47;4988933;28;20014;-21
2022/03/21 01:43:56;;;;;;;18.38;13.93;;;;;;;3.20;54.57;102666.53;4989444;28;20480;-21
2022/03/21 01:46:21;;;;;;;18.20;14.55;;;;;;;3.19;54.09;102656.00;4988001;28;20026;-21
2022/03/21 01:48:47;;;;;;;20.20;14.18;;;;;;;3.16;54.39;102650.63;4990568;28;20096;-21
2022/03/21 01:51:12;;;;;;;21.13;14.15;;;;;;;3.14;54.51;102653.16;4988570;28;20105;-21
2022/03/21 01:56:23;;;;;;;18.85;14.30;;;;;;;3.07;54.69;102659.75;4991522;28;20045;-21
2022/03/21 01:58:48;;;;;;;17.75;13.90;;;;;;;3.05;54.72;102655.28;4991236;28;20477;-21
2022/03/21 02:01:13;;;;;;;22.48;14.85;;;;;;;3.03;54.99;102654.31;4993763;28;20033;-21
2022/03/21 02:03:39;;;;;;;19.20;14.18;;;;;;;3.00;54.84;102656.75;4997269;28;20424;-21
2022/03/21 02:06:04;;;;;;;18.67;14.13;;;;;;;2.97;54.69;102651.38;4996580;28;20037;-21
2022/03/21 02:08:30;;;;;;;22.83;14.68;;;;;;;2.95;54.94;102648.66;4997338;28;20059;-21
2022/03/21 02:10:55;;;;;;;20.80;13.55;;;;;;;2.91;55.24;102657.13;5001844;28;20464;-21
2022/03/21 02:13:21;;;;;;;21.35;15.27;;;;;;;2.89;55.17;102657.06;4996630;28;20061;-21
2022/03/21 02:15:46;;;;;;;18.35;13.13;;;;;;;2.88;55.03;102651.75;4995932;28;20026;-21
2022/03/21 02:18:12;;;;;;;19.65;14.10;;;;;;;2.84;55.02;102649.78;4997513;28;20043;-21
2022/03/21 02:20:40;;;;;;;21.45;14.57;;;;;;;2.81;54.80;102650.53;4999285;28;20025;-21
2022/03/21 02:23:26;;;;;;;20.98;15.55;;;;;;;2.79;55.15;102652.13;4994454;28;20648;-21
2022/03/21 02:25:52;;;;;;;19.90;14.23;;;;;;;2.78;55.35;102650.34;4992105;28;20045;-21
2022/03/21 02:28:17;;;;;;;17.35;13.88;;;;;;;2.73;55.34;102651.81;4991912;28;20022;-21
2022/03/21 02:30:48;;;;;;;20.45;14.85;;;;;;;2.71;55.21;102648.22;4988516;28;20042;-21
2022/03/21 02:33:16;;;;;;;17.35;14.02;;;;;;;2.68;55.27;102638.53;4988609;28;20354;-21
2022/03/21 02:35:47;;;;;;;20.95;14.65;;;;;;;2.66;55.32;102650.56;4991617;28;20057;-21
2022/03/21 02:38:13;;;;;;;19.60;14.27;;;;;;;2.64;55.22;102658.28;4976747;28;20562;-21
2022/03/21 02:40:38;;;;;;;19.38;14.30;;;;;;;2.61;55.25;102655.53;4989975;28;20033;-21
2022/03/21 02:43:04;;;;;;;19.25;14.18;;;;;;;2.59;55.39;102659.75;4991828;28;20477;-21
2022/03/21 02:45:30;;;;;;;19.17;14.15;;;;;;;2.55;55.57;102647.38;4993861;28;20045;-21
2022/03/21 02:47:55;;;;;;;20.77;14.88;;;;;;;2.52;55.66;102653.31;4993289;28;20031;-21
2022/03/21 02:51:07;;;;;;;21.27;14.95;;;;;;;2.52;55.41;102652.41;4985822;28;20160;-21
2022/03/21 02:53:34;;;;;;;;;;;;;;;2.48;55.59;102651.34;4991878;28;20363;-21
2022/03/21 02:55:59;;;;;;;19.27;14.20;;;;;;;2.46;55.52;102652.06;4989786;28;20044;-21
2022/03/21 02:58:25;;;;;;;20.48;14.15;;;;;;;2.41;55.59;102657.88;4992116;28;20054;-21
2022/03/21 03:00:50;;;;;;;17.17;13.57;;;;;;;2.40;55.54;102663.03;4990941;28;20033;-21
2022/03/21 03:03:15;;;;;;;20.30;15.27;;;;;;;2.37;55.74;102649.84;4995862;28;20033;-21
2022/03/21 03:05:41;;;;;;;21.27;14.57;;;;;;;2.34;55.18;102650.56;4988402;28;20023;-21
2022/03/21 03:08:06;;;;;;;21.75;15.32;;;;;;;2.30;55.63;102651.16;4986070;28;20033;-21
2022/03/21 03:10:31;;;;;;;20.77;14.40;;;;;;;2.28;55.54;102647.59;4991581;28;20031;-21
2022/03/21 03:12:57;;;;;;;20.98;14.18;;;;;;;2.24;55.48;102650.84;4992355;28;20141;-21
2022/03/21 03:15:22;;;;;;;19.08;14.73;;;;;;;2.20;55.63;102646.28;4990703;28;20331;-21
2022/03/21 03:17:47;;;;;;;19.73;14.75;;;;;;;2.17;55.75;102647.00;4993310;28;20021;-21
2022/03/21 03:20:13;;;;;;;17.23;13.50;;;;;;;2.14;55.85;102655.50;4991859;28;20034;-21
2022/03/21 03:22:39;;;;;;;20.38;14.63;;;;;;;2.13;55.51;102653.72;4989641;28;20109;-21
2022/03/21 03:25:05;;;;;;;17.00;14.20;;;;;;;2.08;55.53;102657.78;4991911;28;20453;-21
2022/03/21 03:27:33;;;;;;;18.75;14.38;;;;;;;2.05;55.72;102653.28;4991154;28;20113;-21
2022/03/21 03:29:59;;;;;;;20.27;14.70;;;;;;;2.03;55.63;102651.38;4993446;28;20030;-21
2022/03/21 03:32:24;;;;;;;19.35;15.25;;;;;;;1.99;55.87;102654.63;4990833;28;20481;-21
2022/03/21 03:34:50;;;;;;;17.52;14.20;;;;;;;1.96;55.63;102655.34;4991816;28;20022;-21
2022/03/21 03:37:16;;;;;;;20.20;14.65;;;;;;;1.95;55.67;102655.25;4991373;28;20034;-21
2022/03/21 03:39:42;;;;;;;19.30;14.55;;;;;;;1.91;55.99;102656.78;4992057;28;20077;-21
2022/03/21 03:42:07;;;;;;;23.17;16.25;;;;;;;1.87;55.79;102658.28;4990466;28;20452;-21
2022/03/21 03:44:33;;;;;;;19.83;14.68;;;;;;;1.86;55.65;102659.09;4990777;28;20069;-21
2022/03/21 03:46:58;;;;;;;19.33;14.18;;;;;;;1.81;56.04;102650.16;5006143;28;20416;-21
2022/03/21 03:49:23;;;;;;;18.70;14.50;;;;;;;1.78;56.15;102655.16;4990349;28;20114;-21
2022/03/21 03:51:49;;;;;;;21.15;15.77;;;;;;;1.76;55.87;102647.25;4989104;28;20054;-21
2022/03/21 03:54:14;;;;;;;21.92;15.07;;;;;;;1.68;56.19;102651.13;4990087;28;20045;-21
2022/03/21 03:56:40;;;;;;;19.13;14.98;;;;;;;1.69;55.86;102657.19;4989942;28;20415;-21
2022/03/21 03:59:05;;;;;;;16.80;14.25;;;;;;;1.67;56.15;102655.41;4992176;28;20037;-21
2022/03/21 04:01:30;;;;;;;18.50;14.70;;;;;;;1.64;56.38;102652.63;4991689;28;20494;-21
2022/03/21 04:03:59;;;;;;;19.63;14.40;;;;;;;1.61;56.29;102657.66;4993958;28;20022;-21
2022/03/21 04:06:25;;;;;;;22.90;15.32;;;;;;;1.59;56.26;102659.25;4992310;28;20030;-21
2022/03/21 04:08:51;;;;;;;19.85;14.60;;;;;;;1.56;56.15;102653.00;4992919;28;20109;-21
2022/03/21 04:11:17;;;;;;;22.23;15.07;;;;;;;1.54;56.34;102653.78;4986691;28;20499;-21
2022/03/21 04:13:42;;;;;;;19.58;14.73;;;;;;;1.51;56.35;102650.09;4990376;28;20029;-21
2022/03/21 04:16:08;;;;;;;22.08;15.18;;;;;;;1.48;56.49;102652.50;4990553;28;20026;-21
2022/03/21 04:18:34;;;;;;;19.70;15.15;;;;;;;1.47;56.52;102658.53;4990149;28;20057;-21
2022/03/21 04:21:00;;;;;;;24.00;16.35;;;;;;;1.44;56.29;102663.53;4992708;28;20507;-21
2022/03/21 04:23:25;;;;;;;23.15;16.85;;;;;;;1.39;56.64;102656.38;4989807;28;20041;-21
2022/03/21 04:25:50;;;;;;;24.17;16.33;;;;;;;1.37;56.15;102657.94;4989792;28;20038;-21
2022/03/21 04:28:16;;;;;;;22.77;16.20;;;;;;;1.36;56.38;102653.56;4991513;28;20038;-21
2022/03/21 04:30:42;;;;;;;22.33;15.48;;;;;;;1.32;56.47;102664.59;4988119;28;20083;-21
2022/03/21 04:33:09;;;;;;;24.60;15.88;;;;;;;1.30;56.63;102660.97;4989222;28;20124;-21
2022/03/21 04:35:36;;;;;;;24.05;16.23;;;;;;;1.28;56.71;102662.59;4990865;28;20049;-21
2022/03/21 04:38:01;;;;;;;21.73;15.25;;;;;;;1.25;56.49;102659.81;4990545;28;20038;-21
2022/03/21 04:40:27;;;;;;;24.50;16.45;;;;;;;1.23;56.38;102677.91;4992769;28;20491;-21
2022/03/21 04:42:52;;;;;;;23.70;16.23;;;;;;;1.22;56.40;102668.31;4993918;28;21277;-21
2022/03/21 04:45:17;;;;;;;20.50;15.23;;;;;;;1.21;56.49;102668.22;4995737;28;20033;-21
2022/03/21 04:47:45;;;;;;;23.25;15.88;;;;;;;1.18;56.90;102668.03;4990631;28;20038;-21
2022/03/21 04:50:11;;;;;;;23.90;16.00;;;;;;;1.15;56.39;102669.66;4994799;28;20507;-21
2022/03/21 04:52:36;;;;;;;24.05;15.27;;;;;;;1.12;56.95;102661.66;4994418;28;20030;-21
2022/03/21 04:55:02;;;;;;;24.15;16.27;;;;;;;1.10;56.61;102672.78;4988902;28;20038;-21
2022/03/21 04:57:27;;;;;;;22.20;15.73;;;;;;;1.08;56.54;102669.16;4994106;28;20030;-20
2022/03/21 04:59:54;;;;;;;22.92;16.33;;;;;;;1.06;56.48;102671.66;4989213;28;20038;-21
2022/03/21 05:02:19;;;;;;;21.17;16.25;;;;;;;1.05;56.93;102677.69;4996693;28;20022;-21
2022/03/21 05:04:45;;;;;;;24.73;15.90;;;;;;;1.02;56.36;102669.69;4989264;28;20056;-21
2022/03/21 05:07:16;;;;;;;23.50;16.15;;;;;;;0.99;56.63;102685.97;4990360;28;20065;-21
2022/03/21 05:09:45;;;;;;;22.50;15.40;;;;;;;0.97;57.02;102677.19;4988683;28;20445;-21
2022/03/21 05:12:12;;;;;;;21.83;15.57;;;;;;;0.96;56.82;102679.69;4993671;28;20396;-21
2022/03/21 05:14:38;;;;;;;24.30;15.90;;;;;;;0.92;56.78;102689.00;4992152;28;20029;-21
2022/03/21 05:17:05;;;;;;;20.88;14.98;;;;;;;0.91;56.77;102691.50;4994659;28;20034;-21
2022/03/21 05:19:36;;;;;;;24.60;15.05;;;;;;;0.86;56.56;102694.69;4992662;28;20026;-21
2022/03/21 05:22:06;;;;;;;19.92;14.15;;;;;;;0.84;56.63;102698.00;4991648;28;20419;-21
2022/03/21 05:35:55;;;;;;;21.73;15.45;;;;;;;0.74;57.11;102696.53;4989781;28;20053;-21
2022/03/21 05:35:57;;;;;;;20.92;14.82;;;;;;;0.70;57.11;102692.81;4989215;28;20042;-21
2022/03/21 05:38:25;;;;;;;21.75;15.63;;;;;;;0.69;57.13;102690.13;4992960;28;20061;-20
2022/03/21 05:40:51;;;;;;;18.25;14.20;;;;;;;0.67;56.88;102702.13;4991076;28;20022;-21
2022/03/21 05:43:16;;;;;;;22.08;14.88;;;;;;;0.64;56.99;102692.44;4998652;28;20070;-21
2022/03/21 05:45:42;;;;;;;17.52;13.90;;;;;;;0.64;56.75;102697.63;5000749;28;20037;-21
2022/03/21 05:50:51;;;;;;;19.38;13.98;;;;;;;0.60;57.05;102704.31;5001320;28;20599;-21
2022/03/21 05:53:17;;;;;;;21.02;14.40;;;;;;;0.58;57.73;102708.53;4995244;28;20038;-20
2022/03/21 05:55:45;;;;;;;21.42;15.18;;;;;;;0.57;57.09;102701.50;4992475;28;20080;-21
2022/03/21 05:58:10;;;;;;;17.80;13.60;;;;;;;0.57;57.71;102716.22;4996372;28;20031;-21
2022/03/21 06:00:36;;;;;;;20.50;14.50;;;;;;;0.55;57.26;102713.50;4990227;28;20022;-21
2022/03/21 06:03:03;;;;;;;20.77;14.95;;;;;;;0.55;57.53;102708.31;4991263;28;20037;-20
2022/03/21 06:05:30;;;;;;;20.80;15.15;;;;;;;0.54;57.46;102711.72;4993411;28;20444;-21
2022/03/21 06:07:56;;;;;;;24.40;15.85;;;;;;;0.53;57.28;102717.69;4996587;28;20029;-20
2022/03/21 06:10:21;;;;;;;22.27;14.60;;;;;;;0.54;57.25;102722.09;4993711;28;20030;-21
2022/03/21 06:12:46;;;;;;;21.30;15.10;;;;;;;0.52;57.33;102718.50;4994109;28;20503;-21
2022/03/21 06:15:12;;;;;;;20.38;15.57;;;;;;;0.52;57.53;102728.88;4985316;28;20038;-21
2022/03/21 06:17:39;;;;;;;22.23;14.52;;;;;;;0.51;57.85;102720.19;4995871;28;20084;-20
2022/03/21 06:20:16;;;;;;;21.00;14.13;;;;;;;0.51;57.36;102727.97;4993518;28;20112;-21
2022/03/21 06:22:42;;;;;;;18.73;13.43;;;;;;;0.53;57.41;102735.00;4992333;28;20099;-21
2022/03/21 06:25:09;;;;;;;18.08;14.32;;;;;;;0.53;57.94;102735.88;4996406;28;20603;-21
2022/03/21 06:27:37;;;;;;;20.88;14.82;;;;;;;0.53;57.83;102730.69;4991067;28;20046;-21
2022/03/21 06:30:04;;;;;;;20.98;13.52;;;;;;;0.55;57.74;102738.56;4994437;28;20026;-21
2022/03/21 06:32:29;;;;;;;22.10;15.13;;;;;;;0.54;57.69;102724.72;4986958;28;20044;-20
2022/03/21 06:34:54;;;;;;;20.25;14.85;;;;;;;0.56;57.58;102745.59;4994038;28;20105;-21
2022/03/21 06:37:20;;;;;;;18.95;13.48;;;;;;;0.56;57.51;102741.28;4990179;28;20120;-21
2022/03/21 06:39:45;;;;;;;17.92;13.10;;;;;;;0.58;57.94;102733.59;4991272;28;20035;-20
2022/03/21 06:42:11;;;;;;;17.52;13.23;;;;;;;0.59;57.74;102735.38;4989507;28;20393;-21
2022/03/21 06:44:37;;;;;;;18.83;13.77;;;;;;;0.62;58.22;102741.69;4993968;28;20041;-20
2022/03/21 06:47:03;;;;;;;20.17;14.60;;;;;;;0.64;58.15;102739.19;4993385;28;20031;-21
2022/03/21 06:49:29;;;;;;;20.60;13.73;;;;;;;0.67;57.90;102743.69;4990457;28;20030;-20
2022/03/21 06:51:56;;;;;;;21.80;15.27;;;;;;;0.68;57.67;102735.09;4997258;28;21046;-21
2022/03/21 06:54:22;;;;;;;19.80;13.32;;;;;;;0.70;57.70;102744.75;5001088;28;20025;-21
2022/03/21 06:56:47;;;;;;;20.75;14.02;;;;;;;0.73;57.74;102747.56;5001099;28;20542;-20
2022/03/21 06:59:12;;;;;;;19.38;13.43;;;;;;;0.77;58.10;102746.09;5002619;28;20030;-21
2022/03/21 07:01:38;;;;;;;23.95;14.60;;;;;;;0.80;57.89;102743.66;4995448;28;20056;-21
2022/03/21 07:04:04;;;;;;;18.75;13.48;;;;;;;0.82;58.11;102739.47;4995892;28;20030;-21
2022/03/21 07:06:29;;;;;;;20.75;14.15;;;;;;;0.88;57.99;102749.38;4993050;28;20026;-21
2022/03/21 07:08:55;;;;;;;19.85;14.05;;;;;;;0.93;57.97;102741.88;4994346;28;20092;-21
2022/03/21 07:11:21;;;;;;;19.63;13.45;;;;;;;0.97;58.31;102749.06;4995635;28;20030;-21
2022/03/21 07:13:47;;;;;;;19.48;13.70;;;;;;;1.02;57.85;102745.06;4994009;28;20467;-21
2022/03/21 07:16:16;;;;;;;21.15;14.70;;;;;;;1.06;58.20;102749.63;4995055;28;20022;-21
2022/03/21 07:18:42;;;;;;;19.67;13.57;;;;;;;1.11;57.63;102748.25;4992747;28;20038;-21
2022/03/21 07:21:07;;;;;;;19.77;14.48;;;;;;;1.18;58.01;102754.72;4993451;28;20053;-21
2022/03/21 07:23:33;;;;;;;17.98;13.77;;;;;;;1.25;57.92;102753.41;4989776;28;20096;-21
2022/03/21 07:25:58;;;;;;;19.88;12.95;;;;;;;1.31;57.94;102755.50;4989285;28;20030;-21
2022/03/21 07:28:23;;;;;;;17.63;13.32;;;;;;;1.37;58.14;102750.69;4986851;28;20054;-21
2022/03/21 07:30:49;;;;;;;16.75;13.25;;;;;;;1.43;57.90;102755.38;4990044;28;20034;-20
2022/03/21 07:33:14;;;;;;;18.42;12.98;;;;;;;1.51;57.86;102749.84;4992259;28;21013;-19
2022/03/21 07:35:41;;;;;;;18.75;13.70;;;;;;;1.58;58.00;102753.72;4990565;28;20392;-19
2022/03/21 07:38:07;;;;;;;18.55;13.57;;;;;;;1.65;58.04;102748.09;4991852;28;20097;-19
2022/03/21 07:40:32;;;;;;;23.42;14.35;;;;;;;1.72;57.97;102743.25;4990696;28;20595;-19
2022/03/21 07:42:57;;;;;;;18.02;13.32;;;;;;;1.78;57.90;102754.03;4990793;28;20049;-20
2022/03/21 07:48:07;;;;;;;17.80;13.32;;;;;;;1.96;57.61;102745.56;4989516;28;20467;-19
2022/03/21 07:50:32;;;;;;;20.85;13.55;;;;;;;2.02;57.73;102743.31;4990893;28;20046;-19
2022/03/21 07:52:59;;;;;;;18.98;13.57;;;;;;;2.13;57.46;102747.44;4986926;28;20456;-19
2022/03/21 07:55:25;;;;;;;15.65;13.02;;;;;;;2.22;57.34;102756.59;4988738;28;20061;-20
2022/03/21 07:57:50;;;;;;;18.85;13.55;;;;;;;2.31;57.19;102758.03;4987267;28;20301;-20
2022/03/21 08:00:16;;;;;;;18.95;12.90;;;;;;;2.38;56.83;102754.09;4989854;28;20082;-20
2022/03/21 08:02:43;;;;;;;19.60;12.45;;;;;;;2.48;56.58;102759.84;4990376;28;20030;-22
2022/03/21 08:05:09;;;;;;;18.60;12.60;;;;;;;2.57;56.71;102760.38;4988179;28;20089;-19
2022/03/21 08:07:35;;;;;;;17.75;11.88;;;;;;;2.64;56.15;102759.91;4987983;28;20037;-19
2022/03/21 08:10:05;;;;;;;17.50;13.07;;;;;;;2.73;56.29;102750.84;4987145;28;20362;-20
2022/03/21 08:12:30;;;;;;;14.27;12.50;;;;;;;2.81;56.28;102757.38;4989042;28;20034;-20
2022/03/21 08:14:56;;;;;;;22.50;14.10;;;;;;;2.88;55.88;102756.00;4986279;28;20039;-19
2022/03/21 08:17:22;;;;;;;14.45;12.00;;;;;;;2.95;55.75;102764.28;4988718;28;20385;-19
2022/03/21 08:19:47;;;;;;;17.58;12.40;;;;;;;3.05;56.04;102759.56;4989905;28;20477;-19
2022/03/21 08:22:15;;;;;;;20.92;13.13;;;;;;;3.15;55.47;102758.38;4988114;28;20030;-19
2022/03/21 08:24:40;;;;;;;17.83;11.95;;;;;;;3.23;55.82;102764.03;4990310;28;20084;-19
2022/03/21 08:27:06;;;;;;;18.85;12.95;;;;;;;3.29;55.48;102749.59;4990862;28;20038;-20
2022/03/21 08:29:32;;;;;;;16.67;12.27;;;;;;;3.38;55.75;102757.03;4987999;28;20026;-19
2022/03/21 08:31:57;;;;;;;18.00;12.38;;;;;;;3.48;55.46;102758.41;4987911;28;20027;-19
2022/03/21 08:34:23;;;;;;;16.42;12.15;;;;;;;3.57;55.32;102760.63;4988914;28;20350;-19
2022/03/21 08:36:48;;;;;;;19.90;12.60;;;;;;;3.66;55.35;102758.50;4991311;28;20022;-19
2022/03/21 08:39:14;;;;;;;17.60;11.60;;;;;;;3.76;54.96;102759.88;4987673;28;20452;-19
2022/03/21 08:41:39;;;;;;;19.63;12.52;;;;;;;3.84;55.25;102757.69;4987367;28;20026;-20
2022/03/21 08:44:05;;;;;;;17.73;12.27;;;;;;;3.94;54.82;102752.09;4989345;28;20114;-23
2022/03/21 08:46:30;;;;;;;17.83;12.50;;;;;;;4.02;55.02;102752.53;4988673;28;20069;-20
2022/03/21 08:51:40;;;;;;;16.10;12.45;;;;;;;4.23;54.66;102757.03;4988557;28;20560;-20
2022/03/21 08:54:07;;;;;;;17.75;12.00;;;;;;;4.34;55.15;102762.81;4986805;28;21149;-19
2022/03/21 08:56:33;;;;;;;16.48;12.68;;;;;;;4.44;54.76;102758.97;4986159;28;20040;-19
2022/03/21 08:58:58;;;;;;;18.42;11.77;;;;;;;4.52;54.25;102752.38;4988956;28;20022;-20
2022/03/21 09:01:24;;;;;;;18.10;12.82;;;;;;;4.62;54.69;102744.19;4988872;28;20622;-19
2022/03/21 09:03:51;;;;;;;18.65;12.45;;;;;;;4.71;54.85;102746.34;4985667;28;20027;-19
2022/03/21 09:06:20;;;;;;;17.23;12.45;;;;;;;4.81;53.93;102745.09;4990242;28;20040;-19
2022/03/21 09:08:46;;;;;;;16.55;12.75;;;;;;;4.92;54.36;102739.44;4986270;28;20045;-20
2022/03/21 09:11:11;;;;;;;15.82;11.77;;;;;;;5.04;54.23;102737.44;4988509;28;20030;-19
2022/03/21 09:13:36;;;;;;;15.07;11.45;;;;;;;5.14;54.05;102739.66;4987210;28;20084;-19
2022/03/21 09:16:02;;;;;;;15.85;12.95;;;;;;;5.24;54.05;102738.34;4987042;28;20158;-19
2022/03/21 09:18:27;;;;;;;17.55;11.95;;;;;;;5.35;54.07;102741.47;4989146;28;20034;-20
2022/03/21 09:20:52;;;;;;;16.25;11.85;;;;;;;5.45;53.68;102740.19;4987893;28;20238;-21
2022/03/21 09:23:18;;;;;;;16.88;12.60;;;;;;;5.58;53.62;102735.50;4991248;28;20109;-19
2022/03/21 09:25:44;;;;;;;14.23;11.68;;;;;;;5.68;54.05;102737.69;4986827;28;20138;-20
2022/03/21 09:28:09;;;;;;;13.55;11.73;;;;;;;5.76;53.32;102745.88;4986977;28;20024;-19
2022/03/21 09:30:36;;;;;;;16.25;11.93;;;;;;;5.86;52.99;102745.47;4982720;28;20065;-23
2022/03/21 09:33:02;;;;;;;21.02;12.93;;;;;;;5.95;53.27;102742.38;4984942;28;20037;-20
2022/03/21 09:35:27;;;;;;;13.23;11.30;;;;;;;6.07;52.72;102741.13;4986638;28;20018;-19
2022/03/21 09:37:53;;;;;;;15.13;12.13;;;;;;;6.15;52.51;102740.66;4978805;28;20084;-19
2022/03/21 09:40:20;;;;;;;16.58;12.80;;;;;;;6.25;52.27;102736.69;4989558;28;20030;-22
2022/03/21 09:42:46;;;;;;;13.25;11.65;;;;;;;6.36;52.17;102746.69;4986018;28;20080;-19
2022/03/21 09:45:12;;;;;;;14.65;11.98;;;;;;;6.45;52.44;102741.84;4987668;28;20761;-21
2022/03/21 09:50:34;;;;;;;13.15;10.90;;;;;;;6.70;52.47;102737.59;4986556;28;20496;-19
2022/03/21 09:53:00;;;;;;;18.27;12.07;;;;;;;6.82;52.18;102733.69;4987181;28;20049;-19
2022/03/21 09:55:25;;;;;;;16.85;11.68;;;;;;;6.92;52.84;102727.97;4988414;28;20121;-20
2022/03/21 09:57:51;;;;;;;15.20;12.20;;;;;;;7.01;52.52;102725.69;4987905;28;20109;-21
2022/03/21 10:00:16;;;;;;;15.65;11.10;;;;;;;7.10;51.94;102729.53;4987306;28;20044;-20
2022/03/21 10:02:42;;;;;;;16.70;11.95;;;;;;;7.20;51.82;102723.78;4986675;28;20022;-19
2022/03/21 10:05:32;;;;;;;17.73;12.20;;;;;;;7.31;51.88;102727.69;4988345;28;20026;-19
2022/03/21 10:08:20;;;;;;;18.73;12.50;;;;;;;7.46;51.73;102728.25;4986918;28;20437;-19
2022/03/21 10:11:01;;;;;;;14.27;11.40;;;;;;;7.57;51.96;102717.28;4986342;28;20054;-19
2022/03/21 10:13:34;;;;;;;18.97;11.80;;;;;;;7.69;51.88;102722.09;4987759;28;20479;-19
2022/03/21 10:16:16;;;;;;;15.93;11.85;;;;;;;7.81;52.04;102726.88;4988128;28;20847;-20
2022/03/21 10:18:53;;;;;;;17.02;12.73;;;;;;;7.94;52.15;102724.69;4988418;28;20037;-19
2022/03/21 10:21:20;;;;;;;15.07;11.75;;;;;;;8.03;51.71;102727.63;4997506;28;20496;-19
2022/03/21 10:24:07;;;;;;;14.65;11.75;;;;;;;8.16;51.66;102717.53;4987289;28;20581;-22
2022/03/21 10:26:42;;;;;;;15.38;11.15;;;;;;;8.24;51.16;102716.06;4987595;28;20025;-19
2022/03/21 10:29:10;;;;;;;14.50;12.77;;;;;;;8.33;51.32;102716.38;4986248;28;20124;-19
2022/03/21 10:31:47;;;;;;;15.02;12.30;;;;;;;8.48;51.37;102717.72;4986673;28;20403;-19
2022/03/21 10:34:16;;;;;;;15.95;11.90;;;;;;;8.57;51.35;102715.41;4988402;28;20440;-19
2022/03/21 10:37:04;;;;;;;15.23;11.88;;;;;;;8.67;51.31;102715.72;4984381;28;20034;-20
2022/03/21 10:39:31;;;;;;;14.73;11.80;;;;;;;8.77;51.08;102712.50;4986145;28;20030;-19
2022/03/21 10:42:05;;;;;;;16.30;12.60;;;;;;;8.87;50.67;102700.53;4986244;28;20026;-20
2022/03/21 10:44:32;;;;;;;14.52;11.80;;;;;;;8.97;50.62;102699.09;4987925;28;20038;-19
2022/03/21 10:47:00;;;;;;;14.70;11.70;;;;;;;9.07;50.70;102701.16;4984726;28;20519;-19
2022/03/21 10:49:29;;;;;;;15.52;11.85;;;;;;;9.18;50.84;102692.69;4986468;28;20035;-19
2022/03/21 10:51:54;;;;;;;16.95;11.23;;;;;;;9.28;50.99;102692.09;4986329;28;20037;-19
2022/03/21 10:54:39;;;;;;;14.02;12.07;;;;;;;9.37;50.73;102692.34;4985537;28;20030;-22
2022/03/21 10:57:05;;;;;;;14.82;12.00;;;;;;;9.45;50.68;102689.94;4986670;28;20034;-19
2022/03/21 10:59:34;;;;;;;15.10;11.55;;;;;;;9.54;50.44;102691.91;4985705;28;20044;-19
2022/03/21 11:02:14;;;;;;;15.38;12.70;;;;;;;9.65;50.26;102686.06;4986111;28;20164;-19
2022/03/21 11:04:41;;;;;;;16.05;11.73;;;;;;;9.75;50.41;102686.38;4984933;28;20408;-23
2022/03/21 11:07:09;;;;;;;14.68;12.10;;;;;;;9.84;50.63;102688.34;4985846;28;20042;-19
2022/03/21 11:09:34;;;;;;;15.68;12.85;;;;;;;9.94;50.24;102685.97;4987319;28;20057;-19
2022/03/21 11:12:00;;;;;;;15.10;12.48;;;;;;;10.01;50.46;102690.53;4984748;28;20996;-20
2022/03/21 11:14:26;;;;;;;14.88;11.13;;;;;;;10.11;50.18;102679.34;4973717;28;20026;-23
2022/03/21 11:16:52;;;;;;;16.95;12.73;;;;;;;10.19;50.35;102683.94;4987489;28;20153;-19
2022/03/21 11:19:18;;;;;;;16.75;12.40;;;;;;;10.27;50.37;102677.09;4991763;28;20113;-24
2022/03/21 11:21:43;;;;;;;16.02;12.00;;;;;;;10.35;50.17;102675.56;4987040;28;20506;-20
2022/03/21 11:24:09;;;;;;;14.15;11.95;;;;;;;10.42;50.11;102673.06;4987974;28;20085;-21
2022/03/21 11:26:43;;;;;;;14.20;12.05;;;;;;;10.51;50.06;102668.91;4986906;28;20042;-19
2022/03/21 11:29:29;;;;;;;16.58;12.40;;;;;;;10.59;49.86;102679.66;4987137;28;20042;-19
2022/03/21 11:32:21;;;;;;;16.67;12.18;;;;;;;10.67;48.78;102674.53;4994865;28;20034;-20
2022/03/21 11:35:13;;;;;;;15.73;11.98;;;;;;;10.75;48.96;102665.06;4989820;28;20037;-23
2022/03/21 11:37:38;;;;;;;14.40;11.75;;;;;;;10.81;48.27;102669.59;4987786;28;20018;-20
2022/03/21 11:40:29;;;;;;;16.05;12.57;;;;;;;10.88;48.39;102663.56;4991891;28;20042;-21